sensor_id;sensor_type;location;lat;lon;timestamp;P1;durP1;ratioP1;P2;durP2;ratioP2
22105;SDS011;11219;51.486;6.950;2022-07-12T00:00:35;388.97;;;375.67;;
22105;SDS011;11219;51.486;6.950;2022-07-12T00:03:02;371.43;;;358.77;;
22105;SDS011;11219;51.486;6.950;2022-07-12T00:05:29;385.83;;;372.63;;
22105;SDS011;11219;51.486;6.950;2022-07-12T00:07:55;375.07;;;362.33;;
22105;SDS011;11219;51.486;6.950;2022-07-12T00:10:22;354.30;;;342.53;;
22105;SDS011;11219;51.486;6.950;2022-07-12T00:12:50;353.07;;;341.30;;
22105;SDS011;11219;51.486;6.950;2022-07-12T00:15:17;359.43;;;347.43;;
22105;SDS011;11219;51.486;6.950;2022-07-12T00:17:45;360.50;;;348.47;;
22105;SDS011;11219;51.486;6.950;2022-07-12T00:20:12;353.00;;;341.30;;
22105;SDS011;11219;51.486;6.950;2022-07-12T00:22:39;347.20;;;335.57;;
22105;SDS011;11219;51.486;6.950;2022-07-12T00:25:06;331.27;;;320.43;;
22105;SDS011;11219;51.486;6.950;2022-07-12T00:27:34;347.93;;;336.20;;
22105;SDS011;11219;51.486;6.950;2022-07-12T00:30:01;327.43;;;316.87;;
22105;SDS011;11219;51.486;6.950;2022-07-12T00:32:28;358.23;;;346.17;;
22105;SDS011;11219;51.486;6.950;2022-07-12T00:34:56;358.30;;;345.97;;
22105;SDS011;11219;51.486;6.950;2022-07-12T00:37:23;356.70;;;344.73;;
22105;SDS011;11219;51.486;6.950;2022-07-12T00:39:50;362.90;;;350.43;;
22105;SDS011;11219;51.486;6.950;2022-07-12T00:42:17;351.60;;;339.07;;
22105;SDS011;11219;51.486;6.950;2022-07-12T00:44:44;357.37;;;345.43;;
22105;SDS011;11219;51.486;6.950;2022-07-12T00:47:16;334.80;;;323.73;;
22105;SDS011;11219;51.486;6.950;2022-07-12T00:49:51;314.13;;;303.93;;
22105;SDS011;11219;51.486;6.950;2022-07-12T00:52:19;332.33;;;321.40;;
22105;SDS011;11219;51.486;6.950;2022-07-12T00:54:46;329.23;;;318.37;;
22105;SDS011;11219;51.486;6.950;2022-07-12T00:57:13;310.37;;;300.03;;
22105;SDS011;11219;51.486;6.950;2022-07-12T00:59:40;327.47;;;316.80;;
22105;SDS011;11219;51.486;6.950;2022-07-12T01:02:07;314.27;;;304.13;;
22105;SDS011;11219;51.486;6.950;2022-07-12T01:04:34;280.43;;;271.60;;
22105;SDS011;11219;51.486;6.950;2022-07-12T01:07:02;300.77;;;290.93;;
22105;SDS011;11219;51.486;6.950;2022-07-12T01:09:32;285.10;;;275.83;;
22105;SDS011;11219;51.486;6.950;2022-07-12T01:11:59;296.73;;;287.17;;
22105;SDS011;11219;51.486;6.950;2022-07-12T01:14:26;295.87;;;286.03;;
22105;SDS011;11219;51.486;6.950;2022-07-12T01:16:54;315.10;;;304.87;;
22105;SDS011;11219;51.486;6.950;2022-07-12T01:19:22;333.70;;;322.70;;
22105;SDS011;11219;51.486;6.950;2022-07-12T01:21:49;319.43;;;308.93;;
22105;SDS011;11219;51.486;6.950;2022-07-12T01:24:20;298.67;;;289.23;;
22105;SDS011;11219;51.486;6.950;2022-07-12T01:26:48;284.97;;;275.90;;
22105;SDS011;11219;51.486;6.950;2022-07-12T01:29:16;272.87;;;264.17;;
22105;SDS011;11219;51.486;6.950;2022-07-12T01:31:44;286.20;;;277.17;;
22105;SDS011;11219;51.486;6.950;2022-07-12T01:34:11;267.33;;;258.80;;
22105;SDS011;11219;51.486;6.950;2022-07-12T01:36:38;269.00;;;260.67;;
22105;SDS011;11219;51.486;6.950;2022-07-12T01:39:07;264.73;;;256.17;;
22105;SDS011;11219;51.486;6.950;2022-07-12T01:41:35;267.40;;;259.00;;
22105;SDS011;11219;51.486;6.950;2022-07-12T01:44:02;262.90;;;254.73;;
22105;SDS011;11219;51.486;6.950;2022-07-12T01:46:29;294.47;;;285.17;;
22105;SDS011;11219;51.486;6.950;2022-07-12T01:48:56;279.90;;;271.00;;
22105;SDS011;11219;51.486;6.950;2022-07-12T01:51:23;275.57;;;267.00;;
22105;SDS011;11219;51.486;6.950;2022-07-12T01:53:50;265.87;;;257.07;;
22105;SDS011;11219;51.486;6.950;2022-07-12T01:56:17;255.27;;;247.33;;
22105;SDS011;11219;51.486;6.950;2022-07-12T01:58:47;252.93;;;245.13;;
22105;SDS011;11219;51.486;6.950;2022-07-12T02:01:14;248.17;;;240.43;;
22105;SDS011;11219;51.486;6.950;2022-07-12T02:03:41;233.40;;;226.27;;
22105;SDS011;11219;51.486;6.950;2022-07-12T02:06:08;236.50;;;229.23;;
22105;SDS011;11219;51.486;6.950;2022-07-12T02:08:35;276.47;;;267.90;;
22105;SDS011;11219;51.486;6.950;2022-07-12T02:11:02;256.90;;;248.80;;
22105;SDS011;11219;51.486;6.950;2022-07-12T02:13:29;258.80;;;250.53;;
22105;SDS011;11219;51.486;6.950;2022-07-12T02:15:58;265.47;;;256.83;;
22105;SDS011;11219;51.486;6.950;2022-07-12T02:18:24;227.40;;;220.37;;
22105;SDS011;11219;51.486;6.950;2022-07-12T02:20:51;247.77;;;240.10;;
22105;SDS011;11219;51.486;6.950;2022-07-12T02:23:19;267.10;;;258.87;;
22105;SDS011;11219;51.486;6.950;2022-07-12T02:25:46;273.73;;;265.23;;
22105;SDS011;11219;51.486;6.950;2022-07-12T02:28:13;256.67;;;248.73;;
22105;SDS011;11219;51.486;6.950;2022-07-12T02:30:40;249.07;;;241.30;;
22105;SDS011;11219;51.486;6.950;2022-07-12T02:33:08;242.63;;;235.20;;
22105;SDS011;11219;51.486;6.950;2022-07-12T02:35:35;254.47;;;246.57;;
22105;SDS011;11219;51.486;6.950;2022-07-12T02:38:02;229.73;;;222.63;;
22105;SDS011;11219;51.486;6.950;2022-07-12T02:40:29;211.07;;;204.63;;
22105;SDS011;11219;51.486;6.950;2022-07-12T02:43:13;209.53;;;203.13;;
22105;SDS011;11219;51.486;6.950;2022-07-12T02:45:41;220.50;;;213.87;;
22105;SDS011;11219;51.486;6.950;2022-07-12T02:48:09;222.70;;;215.83;;
22105;SDS011;11219;51.486;6.950;2022-07-12T02:50:37;231.63;;;224.47;;
22105;SDS011;11219;51.486;6.950;2022-07-12T02:53:05;228.43;;;221.50;;
22105;SDS011;11219;51.486;6.950;2022-07-12T02:55:32;218.80;;;212.10;;
22105;SDS011;11219;51.486;6.950;2022-07-12T02:57:59;213.03;;;206.40;;
22105;SDS011;11219;51.486;6.950;2022-07-12T03:00:26;219.63;;;212.47;;
22105;SDS011;11219;51.486;6.950;2022-07-12T03:02:53;227.53;;;220.47;;
22105;SDS011;11219;51.486;6.950;2022-07-12T03:05:21;233.40;;;226.27;;
22105;SDS011;11219;51.486;6.950;2022-07-12T03:07:48;228.57;;;221.57;;
22105;SDS011;11219;51.486;6.950;2022-07-12T03:10:15;220.30;;;213.43;;
22105;SDS011;11219;51.486;6.950;2022-07-12T03:12:42;211.40;;;205.00;;
22105;SDS011;11219;51.486;6.950;2022-07-12T03:15:09;216.93;;;209.93;;
22105;SDS011;11219;51.486;6.950;2022-07-12T03:17:37;214.20;;;207.67;;
22105;SDS011;11219;51.486;6.950;2022-07-12T03:20:04;223.13;;;216.30;;
22105;SDS011;11219;51.486;6.950;2022-07-12T03:22:35;214.20;;;207.63;;
22105;SDS011;11219;51.486;6.950;2022-07-12T03:25:02;197.77;;;191.70;;
22105;SDS011;11219;51.486;6.950;2022-07-12T03:27:29;215.57;;;209.00;;
22105;SDS011;11219;51.486;6.950;2022-07-12T03:29:57;235.63;;;228.50;;
22105;SDS011;11219;51.486;6.950;2022-07-12T03:32:24;223.07;;;216.33;;
22105;SDS011;11219;51.486;6.950;2022-07-12T03:34:51;212.50;;;206.10;;
22105;SDS011;11219;51.486;6.950;2022-07-12T03:37:18;200.20;;;193.83;;
22105;SDS011;11219;51.486;6.950;2022-07-12T03:39:46;181.80;;;176.30;;
22105;SDS011;11219;51.486;6.950;2022-07-12T03:42:13;183.77;;;178.17;;
22105;SDS011;11219;51.486;6.950;2022-07-12T03:44:40;176.63;;;171.20;;
22105;SDS011;11219;51.486;6.950;2022-07-12T03:47:07;177.50;;;172.03;;
22105;SDS011;11219;51.486;6.950;2022-07-12T03:49:34;182.83;;;177.03;;
22105;SDS011;11219;51.486;6.950;2022-07-12T03:52:01;186.57;;;180.80;;
22105;SDS011;11219;51.486;6.950;2022-07-12T03:54:28;175.27;;;169.87;;
22105;SDS011;11219;51.486;6.950;2022-07-12T03:56:57;189.40;;;183.53;;
22105;SDS011;11219;51.486;6.950;2022-07-12T03:59:46;194.83;;;188.93;;
22105;SDS011;11219;51.486;6.950;2022-07-12T04:02:13;204.60;;;198.20;;
22105;SDS011;11219;51.486;6.950;2022-07-12T04:04:40;190.43;;;184.43;;
22105;SDS011;11219;51.486;6.950;2022-07-12T04:07:07;194.83;;;188.87;;
22105;SDS011;11219;51.486;6.950;2022-07-12T04:09:34;175.73;;;170.33;;
22105;SDS011;11219;51.486;6.950;2022-07-12T04:12:03;168.10;;;162.83;;
22105;SDS011;11219;51.486;6.950;2022-07-12T04:14:30;156.27;;;151.47;;
22105;SDS011;11219;51.486;6.950;2022-07-12T04:16:57;150.37;;;145.63;;
22105;SDS011;11219;51.486;6.950;2022-07-12T04:19:24;154.00;;;149.20;;
22105;SDS011;11219;51.486;6.950;2022-07-12T04:21:52;152.33;;;147.43;;
22105;SDS011;11219;51.486;6.950;2022-07-12T04:24:20;163.00;;;157.93;;
22105;SDS011;11219;51.486;6.950;2022-07-12T04:26:48;183.10;;;177.50;;
22105;SDS011;11219;51.486;6.950;2022-07-12T04:29:16;158.37;;;153.37;;
22105;SDS011;11219;51.486;6.950;2022-07-12T04:31:44;159.30;;;154.37;;
22105;SDS011;11219;51.486;6.950;2022-07-12T04:34:11;153.13;;;148.33;;
22105;SDS011;11219;51.486;6.950;2022-07-12T04:36:42;154.63;;;149.90;;
22105;SDS011;11219;51.486;6.950;2022-07-12T04:39:10;159.73;;;154.83;;
22105;SDS011;11219;51.486;6.950;2022-07-12T04:41:37;167.63;;;162.43;;
22105;SDS011;11219;51.486;6.950;2022-07-12T04:44:04;168.87;;;163.67;;
22105;SDS011;11219;51.486;6.950;2022-07-12T04:46:33;184.07;;;178.43;;
22105;SDS011;11219;51.486;6.950;2022-07-12T04:49:00;165.03;;;159.70;;
22105;SDS011;11219;51.486;6.950;2022-07-12T04:51:27;176.03;;;170.60;;
22105;SDS011;11219;51.486;6.950;2022-07-12T04:53:54;178.17;;;172.53;;
22105;SDS011;11219;51.486;6.950;2022-07-12T04:56:21;184.53;;;178.90;;
22105;SDS011;11219;51.486;6.950;2022-07-12T04:58:49;177.00;;;171.57;;
22105;SDS011;11219;51.486;6.950;2022-07-12T05:01:16;177.27;;;171.80;;
22105;SDS011;11219;51.486;6.950;2022-07-12T05:03:45;180.37;;;174.80;;
22105;SDS011;11219;51.486;6.950;2022-07-12T05:06:12;175.83;;;170.47;;
22105;SDS011;11219;51.486;6.950;2022-07-12T05:08:39;172.50;;;167.20;;
22105;SDS011;11219;51.486;6.950;2022-07-12T05:11:06;175.13;;;169.77;;
22105;SDS011;11219;51.486;6.950;2022-07-12T05:13:33;190.57;;;184.73;;
22105;SDS011;11219;51.486;6.950;2022-07-12T05:16:00;164.33;;;159.23;;
22105;SDS011;11219;51.486;6.950;2022-07-12T05:18:27;169.23;;;163.97;;
22105;SDS011;11219;51.486;6.950;2022-07-12T05:20:56;187.60;;;181.87;;
22105;SDS011;11219;51.486;6.950;2022-07-12T05:23:23;178.80;;;173.27;;
22105;SDS011;11219;51.486;6.950;2022-07-12T05:25:50;176.47;;;170.80;;
22105;SDS011;11219;51.486;6.950;2022-07-12T05:28:17;170.00;;;164.73;;
22105;SDS011;11219;51.486;6.950;2022-07-12T05:30:44;169.73;;;164.07;;
22105;SDS011;11219;51.486;6.950;2022-07-12T05:33:11;168.00;;;162.53;;
22105;SDS011;11219;51.486;6.950;2022-07-12T05:35:38;159.40;;;154.30;;
22105;SDS011;11219;51.486;6.950;2022-07-12T05:38:07;151.17;;;146.50;;
22105;SDS011;11219;51.486;6.950;2022-07-12T05:40:34;153.63;;;148.80;;
22105;SDS011;11219;51.486;6.950;2022-07-12T05:43:01;164.57;;;159.43;;
22105;SDS011;11219;51.486;6.950;2022-07-12T05:45:28;148.83;;;144.20;;
22105;SDS011;11219;51.486;6.950;2022-07-12T05:47:56;93.80;;;90.80;;
22105;SDS011;11219;51.486;6.950;2022-07-12T05:50:23;48.90;;;47.30;;
22105;SDS011;11219;51.486;6.950;2022-07-12T05:52:50;42.87;;;41.47;;
22105;SDS011;11219;51.486;6.950;2022-07-12T05:55:32;49.80;;;48.13;;
22105;SDS011;11219;51.486;6.950;2022-07-12T05:57:59;58.22;;;56.30;;
22105;SDS011;11219;51.486;6.950;2022-07-12T06:00:27;94.53;;;91.53;;
22105;SDS011;11219;51.486;6.950;2022-07-12T06:02:54;132.77;;;128.55;;
22105;SDS011;11219;51.486;6.950;2022-07-12T06:05:21;168.85;;;163.50;;
22105;SDS011;11219;51.486;6.950;2022-07-12T06:07:48;176.48;;;170.60;;
22105;SDS011;11219;51.486;6.950;2022-07-12T06:10:15;224.20;;;216.68;;
22105;SDS011;11219;51.486;6.950;2022-07-12T06:12:43;220.07;;;212.82;;
22105;SDS011;11219;51.486;6.950;2022-07-12T06:15:11;167.65;;;162.23;;
22105;SDS011;11219;51.486;6.950;2022-07-12T06:17:39;150.80;;;146.00;;
22105;SDS011;11219;51.486;6.950;2022-07-12T06:20:06;131.68;;;127.38;;
22105;SDS011;11219;51.486;6.950;2022-07-12T06:22:33;135.07;;;130.73;;
22105;SDS011;11219;51.486;6.950;2022-07-12T06:25:00;139.57;;;135.07;;
22105;SDS011;11219;51.486;6.950;2022-07-12T06:27:27;119.35;;;115.50;;
22105;SDS011;11219;51.486;6.950;2022-07-12T06:29:56;125.60;;;121.53;;
22105;SDS011;11219;51.486;6.950;2022-07-12T06:32:22;133.93;;;129.57;;
22105;SDS011;11219;51.486;6.950;2022-07-12T06:34:49;148.07;;;143.25;;
22105;SDS011;11219;51.486;6.950;2022-07-12T06:37:16;145.23;;;140.15;;
22105;SDS011;11219;51.486;6.950;2022-07-12T06:39:43;149.50;;;144.65;;
22105;SDS011;11219;51.486;6.950;2022-07-12T06:42:12;155.23;;;150.23;;
22105;SDS011;11219;51.486;6.950;2022-07-12T06:44:39;132.18;;;127.93;;
22105;SDS011;11219;51.486;6.950;2022-07-12T06:47:07;140.48;;;135.88;;
22105;SDS011;11219;51.486;6.950;2022-07-12T06:49:35;135.90;;;131.50;;
22105;SDS011;11219;51.486;6.950;2022-07-12T06:52:04;128.40;;;124.30;;
22105;SDS011;11219;51.486;6.950;2022-07-12T06:54:31;121.55;;;117.65;;
22105;SDS011;11219;51.486;6.950;2022-07-12T06:56:58;114.57;;;110.88;;
22105;SDS011;11219;51.486;6.950;2022-07-12T06:59:25;113.68;;;110.05;;
22105;SDS011;11219;51.486;6.950;2022-07-12T07:01:52;128.15;;;124.00;;
22105;SDS011;11219;51.486;6.950;2022-07-12T07:04:22;156.85;;;151.75;;
22105;SDS011;11219;51.486;6.950;2022-07-12T07:06:49;129.98;;;125.78;;
22105;SDS011;11219;51.486;6.950;2022-07-12T07:09:16;133.00;;;128.70;;
22105;SDS011;11219;51.486;6.950;2022-07-12T07:11:44;152.70;;;147.70;;
22105;SDS011;11219;51.486;6.950;2022-07-12T07:14:11;159.57;;;154.27;;
22105;SDS011;11219;51.486;6.950;2022-07-12T07:16:38;131.73;;;127.35;;
22105;SDS011;11219;51.486;6.950;2022-07-12T07:19:05;126.40;;;122.25;;
22105;SDS011;11219;51.486;6.950;2022-07-12T07:21:33;142.40;;;137.70;;
22105;SDS011;11219;51.486;6.950;2022-07-12T07:24:00;115.18;;;111.43;;
22105;SDS011;11219;51.486;6.950;2022-07-12T07:26:27;116.55;;;112.75;;
22105;SDS011;11219;51.486;6.950;2022-07-12T07:28:54;113.45;;;109.75;;
22105;SDS011;11219;51.486;6.950;2022-07-12T07:31:39;131.40;;;127.15;;
22105;SDS011;11219;51.486;6.950;2022-07-12T07:34:07;119.85;;;116.03;;
22105;SDS011;11219;51.486;6.950;2022-07-12T07:36:36;117.07;;;113.30;;
22105;SDS011;11219;51.486;6.950;2022-07-12T07:39:03;101.53;;;97.93;;
22105;SDS011;11219;51.486;6.950;2022-07-12T07:41:30;113.03;;;109.32;;
22105;SDS011;11219;51.486;6.950;2022-07-12T07:43:57;123.32;;;119.32;;
22105;SDS011;11219;51.486;6.950;2022-07-12T07:46:24;116.32;;;112.60;;
22105;SDS011;11219;51.486;6.950;2022-07-12T07:48:50;129.75;;;125.55;;
22105;SDS011;11219;51.486;6.950;2022-07-12T07:51:17;127.45;;;123.32;;
22105;SDS011;11219;51.486;6.950;2022-07-12T07:53:47;134.10;;;129.75;;
22105;SDS011;11219;51.486;6.950;2022-07-12T07:56:13;133.05;;;128.77;;
22105;SDS011;11219;51.486;6.950;2022-07-12T07:58:40;128.60;;;124.45;;
22105;SDS011;11219;51.486;6.950;2022-07-12T08:01:07;126.25;;;122.15;;
22105;SDS011;11219;51.486;6.950;2022-07-12T08:03:34;129.38;;;125.13;;
22105;SDS011;11219;51.486;6.950;2022-07-12T08:06:01;126.68;;;122.57;;
22105;SDS011;11219;51.486;6.950;2022-07-12T08:08:28;136.10;;;131.70;;
22105;SDS011;11219;51.486;6.950;2022-07-12T08:10:57;128.13;;;124.00;;
22105;SDS011;11219;51.486;6.950;2022-07-12T08:13:24;129.68;;;125.40;;
22105;SDS011;11219;51.486;6.950;2022-07-12T08:15:53;117.00;;;113.22;;
22105;SDS011;11219;51.486;6.950;2022-07-12T08:18:19;113.22;;;109.57;;
22105;SDS011;11219;51.486;6.950;2022-07-12T08:20:48;119.70;;;115.82;;
22105;SDS011;11219;51.486;6.950;2022-07-12T08:23:15;115.00;;;111.28;;
22105;SDS011;11219;51.486;6.950;2022-07-12T08:25:42;124.22;;;120.22;;
22105;SDS011;11219;51.486;6.950;2022-07-12T08:28:11;129.75;;;125.57;;
22105;SDS011;11219;51.486;6.950;2022-07-12T08:30:38;140.10;;;135.60;;
22105;SDS011;11219;51.486;6.950;2022-07-12T08:33:05;129.48;;;125.30;;
22105;SDS011;11219;51.486;6.950;2022-07-12T08:35:32;106.22;;;102.80;;
22105;SDS011;11219;51.486;6.950;2022-07-12T08:38:02;74.70;;;72.28;;
22105;SDS011;11219;51.486;6.950;2022-07-12T08:40:29;74.25;;;71.82;;
22105;SDS011;11219;51.486;6.950;2022-07-12T08:42:56;67.25;;;65.05;;
22105;SDS011;11219;51.486;6.950;2022-07-12T08:45:26;68.28;;;66.05;;
22105;SDS011;11219;51.486;6.950;2022-07-12T08:47:54;78.20;;;75.63;;
22105;SDS011;11219;51.486;6.950;2022-07-12T08:50:21;66.97;;;64.78;;
22105;SDS011;11219;51.486;6.950;2022-07-12T08:52:50;70.43;;;68.13;;
22105;SDS011;11219;51.486;6.950;2022-07-12T08:55:22;73.55;;;71.15;;
22105;SDS011;11219;51.486;6.950;2022-07-12T08:57:52;79.20;;;76.63;;
22105;SDS011;11219;51.486;6.950;2022-07-12T09:00:20;71.65;;;69.32;;
22105;SDS011;11219;51.486;6.950;2022-07-12T09:02:49;76.38;;;73.75;;
22105;SDS011;11219;51.486;6.950;2022-07-12T09:05:17;75.45;;;72.85;;
22105;SDS011;11219;51.486;6.950;2022-07-12T09:07:45;87.72;;;84.90;;
22105;SDS011;11219;51.486;6.950;2022-07-12T09:10:16;67.85;;;65.60;;
22105;SDS011;11219;51.486;6.950;2022-07-12T09:12:44;71.28;;;68.93;;
22105;SDS011;11219;51.486;6.950;2022-07-12T09:15:15;74.72;;;72.32;;
22105;SDS011;11219;51.486;6.950;2022-07-12T09:17:46;74.32;;;71.90;;
22105;SDS011;11219;51.486;6.950;2022-07-12T09:20:23;73.28;;;70.90;;
22105;SDS011;11219;51.486;6.950;2022-07-12T09:22:51;73.03;;;70.63;;
22105;SDS011;11219;51.486;6.950;2022-07-12T09:25:19;70.35;;;68.05;;
22105;SDS011;11219;51.486;6.950;2022-07-12T09:27:47;71.60;;;69.20;;
22105;SDS011;11219;51.486;6.950;2022-07-12T09:30:16;73.70;;;71.22;;
22105;SDS011;11219;51.486;6.950;2022-07-12T09:32:51;72.35;;;69.97;;
22105;SDS011;11219;51.486;6.950;2022-07-12T09:35:38;133.90;;;129.63;;
22105;SDS011;11219;51.486;6.950;2022-07-12T09:38:23;132.90;;;128.65;;
22105;SDS011;11219;51.486;6.950;2022-07-12T09:40:53;130.25;;;126.07;;
22105;SDS011;11219;51.486;6.950;2022-07-12T09:43:21;163.25;;;158.05;;
22105;SDS011;11219;51.486;6.950;2022-07-12T09:45:49;102.63;;;99.32;;
22105;SDS011;11219;51.486;6.950;2022-07-12T09:48:16;118.82;;;115.03;;
22105;SDS011;11219;51.486;6.950;2022-07-12T09:50:46;119.32;;;115.53;;
22105;SDS011;11219;51.486;6.950;2022-07-12T09:53:27;85.60;;;82.85;;
22105;SDS011;11219;51.486;6.950;2022-07-12T09:55:55;136.00;;;131.57;;
22105;SDS011;11219;51.486;6.950;2022-07-12T09:58:23;159.10;;;153.85;;
22105;SDS011;11219;51.486;6.950;2022-07-12T10:00:53;155.95;;;150.93;;
22105;SDS011;11219;51.486;6.950;2022-07-12T10:03:22;161.75;;;156.52;;
22105;SDS011;11219;51.486;6.950;2022-07-12T10:05:54;158.27;;;153.15;;
22105;SDS011;11219;51.486;6.950;2022-07-12T10:08:21;144.32;;;139.57;;
22105;SDS011;11219;51.486;6.950;2022-07-12T10:11:05;133.88;;;129.52;;
22105;SDS011;11219;51.486;6.950;2022-07-12T10:13:33;186.98;;;181.10;;
22105;SDS011;11219;51.486;6.950;2022-07-12T10:16:04;132.98;;;128.57;;
22105;SDS011;11219;51.486;6.950;2022-07-12T10:18:34;151.32;;;146.45;;
22105;SDS011;11219;51.486;6.950;2022-07-12T10:21:01;209.27;;;202.68;;
22105;SDS011;11219;51.486;6.950;2022-07-12T10:23:45;176.65;;;170.98;;
22105;SDS011;11219;51.486;6.950;2022-07-12T10:26:24;177.23;;;171.65;;
22105;SDS011;11219;51.486;6.950;2022-07-12T10:29:02;213.65;;;207.05;;
22105;SDS011;11219;51.486;6.950;2022-07-12T10:31:31;183.80;;;178.05;;
22105;SDS011;11219;51.486;6.950;2022-07-12T10:34:10;166.52;;;161.27;;
22105;SDS011;11219;51.486;6.950;2022-07-12T10:39:34;230.73;;;223.65;;
22105;SDS011;11219;51.486;6.950;2022-07-12T10:42:13;195.02;;;188.95;;
22105;SDS011;11219;51.486;6.950;2022-07-12T10:44:43;140.90;;;136.43;;
22105;SDS011;11219;51.486;6.950;2022-07-12T10:47:11;211.50;;;205.00;;
22105;SDS011;11219;51.486;6.950;2022-07-12T10:49:48;174.68;;;169.27;;
22105;SDS011;11219;51.486;6.950;2022-07-12T10:52:16;154.93;;;150.07;;
22105;SDS011;11219;51.486;6.950;2022-07-12T10:57:45;131.30;;;127.22;;
22105;SDS011;11219;51.486;6.950;2022-07-12T11:00:15;103.07;;;99.82;;
22105;SDS011;11219;51.486;6.950;2022-07-12T11:02:43;170.30;;;164.98;;
22105;SDS011;11219;51.486;6.950;2022-07-12T11:05:10;58.10;;;56.22;;
22105;SDS011;11219;51.486;6.950;2022-07-12T11:07:37;163.32;;;158.23;;
22105;SDS011;11219;51.486;6.950;2022-07-12T11:10:04;50.38;;;48.75;;
22105;SDS011;11219;51.486;6.950;2022-07-12T11:12:33;62.83;;;60.72;;
22105;SDS011;11219;51.486;6.950;2022-07-12T11:15:02;54.10;;;52.28;;
22105;SDS011;11219;51.486;6.950;2022-07-12T11:17:30;73.63;;;71.22;;
22105;SDS011;11219;51.486;6.950;2022-07-12T11:20:04;87.22;;;84.43;;
22105;SDS011;11219;51.486;6.950;2022-07-12T11:22:36;63.45;;;61.28;;
22105;SDS011;11219;51.486;6.950;2022-07-12T11:25:05;115.10;;;111.45;;
22105;SDS011;11219;51.486;6.950;2022-07-12T11:27:36;75.53;;;73.10;;
22105;SDS011;11219;51.486;6.950;2022-07-12T11:30:06;105.65;;;102.22;;
22105;SDS011;11219;51.486;6.950;2022-07-12T11:32:35;62.58;;;60.47;;
22105;SDS011;11219;51.486;6.950;2022-07-12T11:35:06;111.45;;;107.82;;
22105;SDS011;11219;51.486;6.950;2022-07-12T11:37:50;43.25;;;41.85;;
22105;SDS011;11219;51.486;6.950;2022-07-12T11:40:22;45.95;;;44.42;;
22105;SDS011;11219;51.486;6.950;2022-07-12T11:42:53;79.53;;;76.97;;
22105;SDS011;11219;51.486;6.950;2022-07-12T11:45:24;48.17;;;46.58;;
22105;SDS011;11219;51.486;6.950;2022-07-12T11:47:52;60.67;;;58.63;;
22105;SDS011;11219;51.486;6.950;2022-07-12T11:50:19;47.70;;;46.05;;
22105;SDS011;11219;51.486;6.950;2022-07-12T11:52:46;48.35;;;46.75;;
22105;SDS011;11219;51.486;6.950;2022-07-12T11:55:13;70.63;;;68.30;;
22105;SDS011;11219;51.486;6.950;2022-07-12T11:57:41;39.63;;;38.17;;
22105;SDS011;11219;51.486;6.950;2022-07-12T12:00:15;111.00;;;107.55;;
22105;SDS011;11219;51.486;6.950;2022-07-12T12:02:44;44.15;;;42.70;;
22105;SDS011;11219;51.486;6.950;2022-07-12T12:05:11;82.80;;;80.07;;
22105;SDS011;11219;51.486;6.950;2022-07-12T12:07:39;60.65;;;58.63;;
22105;SDS011;11219;51.486;6.950;2022-07-12T12:10:09;66.95;;;64.70;;
22105;SDS011;11219;51.486;6.950;2022-07-12T12:12:38;57.15;;;55.22;;
22105;SDS011;11219;51.486;6.950;2022-07-12T12:15:09;65.93;;;63.70;;
22105;SDS011;11219;51.486;6.950;2022-07-12T12:17:37;49.80;;;48.15;;
22105;SDS011;11219;51.486;6.950;2022-07-12T12:20:12;59.65;;;57.70;;
22105;SDS011;11219;51.486;6.950;2022-07-12T12:22:42;65.00;;;62.83;;
22105;SDS011;11219;51.486;6.950;2022-07-12T12:25:10;66.57;;;64.38;;
22105;SDS011;11219;51.486;6.950;2022-07-12T12:27:40;78.22;;;75.65;;
22105;SDS011;11219;51.486;6.950;2022-07-12T12:30:09;73.65;;;71.22;;
22105;SDS011;11219;51.486;6.950;2022-07-12T12:32:46;91.22;;;88.22;;
22105;SDS011;11219;51.486;6.950;2022-07-12T12:35:16;88.65;;;85.72;;
22105;SDS011;11219;51.486;6.950;2022-07-12T12:37:50;121.85;;;117.43;;
22105;SDS011;11219;51.486;6.950;2022-07-12T12:40:18;93.90;;;90.82;;
22105;SDS011;11219;51.486;6.950;2022-07-12T12:42:46;114.13;;;110.43;;
22105;SDS011;11219;51.486;6.950;2022-07-12T12:45:17;112.90;;;109.25;;
22105;SDS011;11219;51.486;6.950;2022-07-12T12:47:52;99.82;;;96.60;;
22105;SDS011;11219;51.486;6.950;2022-07-12T12:53:07;103.55;;;100.20;;
22105;SDS011;11219;51.486;6.950;2022-07-12T12:55:36;71.57;;;69.22;;
22105;SDS011;11219;51.486;6.950;2022-07-12T12:58:03;92.25;;;89.25;;
22105;SDS011;11219;51.486;6.950;2022-07-12T13:00:30;101.45;;;98.15;;
22105;SDS011;11219;51.486;6.950;2022-07-12T13:02:57;91.68;;;88.70;;
22105;SDS011;11219;51.486;6.950;2022-07-12T13:05:25;79.55;;;76.95;;
22105;SDS011;11219;51.486;6.950;2022-07-12T13:07:54;74.35;;;71.88;;
22105;SDS011;11219;51.486;6.950;2022-07-12T13:10:21;89.18;;;86.28;;
22105;SDS011;11219;51.486;6.950;2022-07-12T13:12:49;91.53;;;88.55;;
22105;SDS011;11219;51.486;6.950;2022-07-12T13:15:16;93.47;;;90.05;;
22105;SDS011;11219;51.486;6.950;2022-07-12T13:17:44;86.55;;;83.75;;
22105;SDS011;11219;51.486;6.950;2022-07-12T13:20:11;103.38;;;100.03;;
22105;SDS011;11219;51.486;6.950;2022-07-12T13:22:39;80.97;;;78.32;;
22105;SDS011;11219;51.486;6.950;2022-07-12T13:25:08;57.90;;;55.92;;
22105;SDS011;11219;51.486;6.950;2022-07-12T13:27:36;60.97;;;58.88;;
22105;SDS011;11219;51.486;6.950;2022-07-12T13:30:04;88.45;;;85.57;;
22105;SDS011;11219;51.486;6.950;2022-07-12T13:32:32;62.72;;;60.60;;
22105;SDS011;11219;51.486;6.950;2022-07-12T13:34:59;59.42;;;57.42;;
22105;SDS011;11219;51.486;6.950;2022-07-12T13:37:27;56.22;;;54.33;;
22105;SDS011;11219;51.486;6.950;2022-07-12T13:39:54;72.55;;;70.18;;
22105;SDS011;11219;51.486;6.950;2022-07-12T13:42:43;66.90;;;64.63;;
22105;SDS011;11219;51.486;6.950;2022-07-12T13:45:12;68.55;;;66.25;;
22105;SDS011;11219;51.486;6.950;2022-07-12T13:47:40;56.15;;;54.25;;
22105;SDS011;11219;51.486;6.950;2022-07-12T13:50:08;56.60;;;54.70;;
22105;SDS011;11219;51.486;6.950;2022-07-12T13:52:36;85.28;;;82.50;;
22105;SDS011;11219;51.486;6.950;2022-07-12T13:55:05;61.53;;;59.47;;
22105;SDS011;11219;51.486;6.950;2022-07-12T13:57:33;65.57;;;63.40;;
22105;SDS011;11219;51.486;6.950;2022-07-12T14:00:02;56.97;;;55.08;;
22105;SDS011;11219;51.486;6.950;2022-07-12T14:02:34;51.13;;;49.33;;
22105;SDS011;11219;51.486;6.950;2022-07-12T14:05:01;60.08;;;58.10;;
22105;SDS011;11219;51.486;6.950;2022-07-12T14:07:29;75.18;;;72.75;;
22105;SDS011;11219;51.486;6.950;2022-07-12T14:09:56;60.15;;;58.15;;
22105;SDS011;11219;51.486;6.950;2022-07-12T14:12:23;73.50;;;71.13;;
22105;SDS011;11219;51.486;6.950;2022-07-12T14:14:51;76.95;;;74.43;;
22105;SDS011;11219;51.486;6.950;2022-07-12T14:17:49;60.25;;;58.25;;
22105;SDS011;11219;51.486;6.950;2022-07-12T14:20:17;66.15;;;63.95;;